sensor_id;sensor_type;location;lat;lon;timestamp;P1;durP1;ratioP1;P2;durP2;ratioP2
6037;SDS011;3047;42.600;23.470;2023-06-22T00:00:50;1.38;;;1.27;;
6037;SDS011;3047;42.600;23.470;2023-06-22T00:03:18;1.95;;;1.85;;
6037;SDS011;3047;42.600;23.470;2023-06-22T00:05:45;1.05;;;1.05;;
6037;SDS011;3047;42.600;23.470;2023-06-22T00:08:12;1.02;;;1.02;;
6037;SDS011;3047;42.600;23.470;2023-06-22T00:10:40;1.02;;;1.02;;
6037;SDS011;3047;42.600;23.470;2023-06-22T00:13:07;1.38;;;1.38;;
6037;SDS011;3047;42.600;23.470;2023-06-22T00:15:36;1.48;;;1.38;;
6037;SDS011;3047;42.600;23.470;2023-06-22T00:18:04;1.38;;;1.30;;
6037;SDS011;3047;42.600;23.470;2023-06-22T00:20:32;1.23;;;1.13;;
6037;SDS011;3047;42.600;23.470;2023-06-22T00:23:03;1.30;;;1.30;;
6037;SDS011;3047;42.600;23.470;2023-06-22T00:25:33;1.50;;;1.50;;
6037;SDS011;3047;42.600;23.470;2023-06-22T00:28:00;1.23;;;1.23;;
6037;SDS011;3047;42.600;23.470;2023-06-22T00:30:30;1.30;;;1.20;;
6037;SDS011;3047;42.600;23.470;2023-06-22T00:32:58;1.05;;;1.05;;
6037;SDS011;3047;42.600;23.470;2023-06-22T00:35:25;1.15;;;1.15;;
6037;SDS011;3047;42.600;23.470;2023-06-22T00:37:54;0.85;;;0.85;;
6037;SDS011;3047;42.600;23.470;2023-06-22T00:40:26;1.00;;;0.98;;
6037;SDS011;3047;42.600;23.470;2023-06-22T00:42:53;1.27;;;1.27;;
6037;SDS011;3047;42.600;23.470;2023-06-22T00:45:20;1.50;;;1.40;;
6037;SDS011;3047;42.600;23.470;2023-06-22T00:47:48;1.30;;;1.30;;
6037;SDS011;3047;42.600;23.470;2023-06-22T00:50:18;1.38;;;1.38;;
6037;SDS011;3047;42.600;23.470;2023-06-22T00:52:48;1.20;;;1.20;;
6037;SDS011;3047;42.600;23.470;2023-06-22T00:55:17;1.30;;;1.30;;
6037;SDS011;3047;42.600;23.470;2023-06-22T00:57:45;1.42;;;1.42;;
6037;SDS011;3047;42.600;23.470;2023-06-22T01:00:13;1.45;;;1.40;;
6037;SDS011;3047;42.600;23.470;2023-06-22T01:02:41;1.30;;;1.30;;
6037;SDS011;3047;42.600;23.470;2023-06-22T01:05:10;1.33;;;1.33;;
6037;SDS011;3047;42.600;23.470;2023-06-22T01:07:42;1.13;;;1.13;;
6037;SDS011;3047;42.600;23.470;2023-06-22T01:10:19;1.10;;;1.10;;
6037;SDS011;3047;42.600;23.470;2023-06-22T01:12:51;1.35;;;1.35;;
6037;SDS011;3047;42.600;23.470;2023-06-22T01:15:21;1.40;;;1.40;;
6037;SDS011;3047;42.600;23.470;2023-06-22T01:17:54;1.40;;;1.40;;
6037;SDS011;3047;42.600;23.470;2023-06-22T01:20:23;1.25;;;1.25;;
6037;SDS011;3047;42.600;23.470;2023-06-22T01:22:58;0.90;;;0.90;;
6037;SDS011;3047;42.600;23.470;2023-06-22T01:25:36;1.40;;;1.40;;
6037;SDS011;3047;42.600;23.470;2023-06-22T01:28:15;1.05;;;1.05;;
6037;SDS011;3047;42.600;23.470;2023-06-22T01:30:50;1.30;;;1.27;;
6037;SDS011;3047;42.600;23.470;2023-06-22T01:33:28;1.52;;;1.52;;
6037;SDS011;3047;42.600;23.470;2023-06-22T01:35:57;1.17;;;1.17;;
6037;SDS011;3047;42.600;23.470;2023-06-22T01:38:25;1.00;;;1.00;;
6037;SDS011;3047;42.600;23.470;2023-06-22T01:40:54;2.38;;;2.28;;
6037;SDS011;3047;42.600;23.470;2023-06-22T01:43:21;1.23;;;1.23;;
6037;SDS011;3047;42.600;23.470;2023-06-22T01:45:51;1.30;;;1.30;;
6037;SDS011;3047;42.600;23.470;2023-06-22T01:48:19;1.20;;;1.15;;
6037;SDS011;3047;42.600;23.470;2023-06-22T01:50:46;1.27;;;1.27;;
6037;SDS011;3047;42.600;23.470;2023-06-22T01:53:13;1.63;;;1.63;;
6037;SDS011;3047;42.600;23.470;2023-06-22T01:55:40;1.58;;;1.52;;
6037;SDS011;3047;42.600;23.470;2023-06-22T01:58:07;1.25;;;1.25;;
6037;SDS011;3047;42.600;23.470;2023-06-22T02:00:34;1.00;;;1.00;;
6037;SDS011;3047;42.600;23.470;2023-06-22T02:03:08;2.55;;;2.42;;
6037;SDS011;3047;42.600;23.470;2023-06-22T02:05:38;1.02;;;1.02;;
6037;SDS011;3047;42.600;23.470;2023-06-22T02:08:19;1.20;;;1.20;;
6037;SDS011;3047;42.600;23.470;2023-06-22T02:10:48;0.90;;;0.90;;
6037;SDS011;3047;42.600;23.470;2023-06-22T02:13:16;0.98;;;0.98;;
6037;SDS011;3047;42.600;23.470;2023-06-22T02:15:43;1.17;;;1.17;;
6037;SDS011;3047;42.600;23.470;2023-06-22T02:18:12;1.42;;;1.42;;
6037;SDS011;3047;42.600;23.470;2023-06-22T02:20:40;1.88;;;1.77;;
6037;SDS011;3047;42.600;23.470;2023-06-22T02:23:06;0.98;;;0.98;;
6037;SDS011;3047;42.600;23.470;2023-06-22T02:25:33;1.75;;;1.70;;
6037;SDS011;3047;42.600;23.470;2023-06-22T02:28:01;1.35;;;1.35;;
6037;SDS011;3047;42.600;23.470;2023-06-22T02:30:28;1.77;;;1.77;;
6037;SDS011;3047;42.600;23.470;2023-06-22T02:32:54;1.25;;;1.25;;
6037;SDS011;3047;42.600;23.470;2023-06-22T02:35:26;1.10;;;1.10;;
6037;SDS011;3047;42.600;23.470;2023-06-22T02:37:56;1.10;;;1.10;;
6037;SDS011;3047;42.600;23.470;2023-06-22T02:40:24;1.40;;;1.30;;
6037;SDS011;3047;42.600;23.470;2023-06-22T02:42:51;1.30;;;1.30;;
6037;SDS011;3047;42.600;23.470;2023-06-22T02:45:17;1.48;;;1.48;;
6037;SDS011;3047;42.600;23.470;2023-06-22T02:47:44;1.45;;;1.45;;
6037;SDS011;3047;42.600;23.470;2023-06-22T02:50:12;1.50;;;1.30;;
6037;SDS011;3047;42.600;23.470;2023-06-22T02:52:40;1.50;;;1.40;;
6037;SDS011;3047;42.600;23.470;2023-06-22T02:55:08;1.38;;;1.35;;
6037;SDS011;3047;42.600;23.470;2023-06-22T02:57:35;1.30;;;1.30;;
6037;SDS011;3047;42.600;23.470;2023-06-22T03:00:03;1.92;;;1.92;;
6037;SDS011;3047;42.600;23.470;2023-06-22T03:02:41;1.95;;;1.10;;
6037;SDS011;3047;42.600;23.470;2023-06-22T03:05:08;1.70;;;1.60;;
6037;SDS011;3047;42.600;23.470;2023-06-22T03:07:38;1.13;;;1.05;;
6037;SDS011;3047;42.600;23.470;2023-06-22T03:10:07;1.40;;;1.40;;
6037;SDS011;3047;42.600;23.470;2023-06-22T03:12:35;1.80;;;1.80;;
6037;SDS011;3047;42.600;23.470;2023-06-22T03:15:05;1.75;;;1.67;;
6037;SDS011;3047;42.600;23.470;2023-06-22T03:17:33;1.75;;;1.75;;
6037;SDS011;3047;42.600;23.470;2023-06-22T03:20:01;2.58;;;1.48;;
6037;SDS011;3047;42.600;23.470;2023-06-22T03:22:33;1.88;;;1.67;;
6037;SDS011;3047;42.600;23.470;2023-06-22T03:25:02;1.58;;;1.50;;
6037;SDS011;3047;42.600;23.470;2023-06-22T03:27:31;1.80;;;1.80;;
6037;SDS011;3047;42.600;23.470;2023-06-22T03:29:57;2.08;;;1.92;;
6037;SDS011;3047;42.600;23.470;2023-06-22T03:32:24;1.30;;;1.30;;
6037;SDS011;3047;42.600;23.470;2023-06-22T03:34:53;1.80;;;1.80;;
6037;SDS011;3047;42.600;23.470;2023-06-22T03:37:19;2.33;;;2.33;;
6037;SDS011;3047;42.600;23.470;2023-06-22T03:39:46;1.70;;;1.65;;
6037;SDS011;3047;42.600;23.470;2023-06-22T03:42:14;2.15;;;2.00;;
6037;SDS011;3047;42.600;23.470;2023-06-22T03:44:41;1.48;;;1.48;;
6037;SDS011;3047;42.600;23.470;2023-06-22T03:47:08;1.42;;;1.33;;
6037;SDS011;3047;42.600;23.470;2023-06-22T03:49:34;1.77;;;1.75;;
6037;SDS011;3047;42.600;23.470;2023-06-22T03:52:01;1.55;;;1.38;;
6037;SDS011;3047;42.600;23.470;2023-06-22T03:54:29;1.75;;;1.75;;
6037;SDS011;3047;42.600;23.470;2023-06-22T03:56:56;1.55;;;1.55;;
6037;SDS011;3047;42.600;23.470;2023-06-22T03:59:25;1.17;;;1.17;;
6037;SDS011;3047;42.600;23.470;2023-06-22T04:01:52;1.73;;;1.63;;
6037;SDS011;3047;42.600;23.470;2023-06-22T04:04:19;1.52;;;1.52;;
6037;SDS011;3047;42.600;23.470;2023-06-22T04:06:46;2.20;;;2.00;;
6037;SDS011;3047;42.600;23.470;2023-06-22T04:09:13;1.27;;;1.27;;
6037;SDS011;3047;42.600;23.470;2023-06-22T04:11:40;1.75;;;1.65;;
6037;SDS011;3047;42.600;23.470;2023-06-22T04:14:06;1.92;;;1.88;;
6037;SDS011;3047;42.600;23.470;2023-06-22T04:16:34;1.90;;;1.88;;
6037;SDS011;3047;42.600;23.470;2023-06-22T04:19:01;2.85;;;2.75;;
6037;SDS011;3047;42.600;23.470;2023-06-22T04:21:31;3.25;;;1.98;;
6037;SDS011;3047;42.600;23.470;2023-06-22T04:23:58;2.05;;;2.05;;
6037;SDS011;3047;42.600;23.470;2023-06-22T04:26:24;2.90;;;2.78;;
6037;SDS011;3047;42.600;23.470;2023-06-22T04:28:51;1.48;;;1.48;;
6037;SDS011;3047;42.600;23.470;2023-06-22T04:31:20;1.80;;;1.70;;
6037;SDS011;3047;42.600;23.470;2023-06-22T04:33:57;3.15;;;1.65;;
6037;SDS011;3047;42.600;23.470;2023-06-22T04:36:32;1.90;;;1.80;;
6037;SDS011;3047;42.600;23.470;2023-06-22T04:39:03;2.38;;;2.28;;
6037;SDS011;3047;42.600;23.470;2023-06-22T04:41:31;2.47;;;2.38;;
6037;SDS011;3047;42.600;23.470;2023-06-22T04:44:07;2.42;;;2.33;;
6037;SDS011;3047;42.600;23.470;2023-06-22T04:46:37;2.60;;;2.50;;
6037;SDS011;3047;42.600;23.470;2023-06-22T04:49:07;2.30;;;2.20;;
6037;SDS011;3047;42.600;23.470;2023-06-22T04:51:36;1.83;;;1.83;;
6037;SDS011;3047;42.600;23.470;2023-06-22T04:54:04;1.92;;;1.92;;
6037;SDS011;3047;42.600;23.470;2023-06-22T04:56:31;2.30;;;2.20;;
6037;SDS011;3047;42.600;23.470;2023-06-22T04:58:58;3.72;;;2.45;;
6037;SDS011;3047;42.600;23.470;2023-06-22T05:01:25;1.73;;;1.73;;
6037;SDS011;3047;42.600;23.470;2023-06-22T05:03:51;3.50;;;3.22;;
6037;SDS011;3047;42.600;23.470;2023-06-22T05:06:21;2.78;;;2.67;;
6037;SDS011;3047;42.600;23.470;2023-06-22T05:08:50;2.17;;;2.08;;
6037;SDS011;3047;42.600;23.470;2023-06-22T05:11:17;2.22;;;2.13;;
6037;SDS011;3047;42.600;23.470;2023-06-22T05:13:44;1.95;;;1.85;;
6037;SDS011;3047;42.600;23.470;2023-06-22T05:16:10;2.30;;;2.20;;
6037;SDS011;3047;42.600;23.470;2023-06-22T05:18:37;1.90;;;1.80;;
6037;SDS011;3047;42.600;23.470;2023-06-22T05:21:04;2.20;;;2.00;;
6037;SDS011;3047;42.600;23.470;2023-06-22T05:23:32;1.98;;;1.88;;
6037;SDS011;3047;42.600;23.470;2023-06-22T05:25:59;2.28;;;2.17;;
6037;SDS011;3047;42.600;23.470;2023-06-22T05:28:25;2.35;;;2.25;;
6037;SDS011;3047;42.600;23.470;2023-06-22T05:30:52;2.10;;;2.03;;
6037;SDS011;3047;42.600;23.470;2023-06-22T05:33:19;2.55;;;2.45;;
6037;SDS011;3047;42.600;23.470;2023-06-22T05:35:46;0.90;;;0.90;;
6037;SDS011;3047;42.600;23.470;2023-06-22T05:38:13;2.85;;;1.65;;
6037;SDS011;3047;42.600;23.470;2023-06-22T05:40:41;1.55;;;1.55;;
6037;SDS011;3047;42.600;23.470;2023-06-22T05:43:08;1.83;;;1.65;;
6037;SDS011;3047;42.600;23.470;2023-06-22T05:45:34;1.67;;;1.67;;
6037;SDS011;3047;42.600;23.470;2023-06-22T05:48:01;1.60;;;1.60;;
6037;SDS011;3047;42.600;23.470;2023-06-22T05:50:28;1.50;;;1.50;;
6037;SDS011;3047;42.600;23.470;2023-06-22T05:52:55;1.20;;;1.20;;
6037;SDS011;3047;42.600;23.470;2023-06-22T05:55:21;1.20;;;1.20;;
6037;SDS011;3047;42.600;23.470;2023-06-22T05:57:49;2.08;;;1.98;;
6037;SDS011;3047;42.600;23.470;2023-06-22T06:00:16;2.90;;;1.83;;
6037;SDS011;3047;42.600;23.470;2023-06-22T06:02:44;1.67;;;1.58;;
6037;SDS011;3047;42.600;23.470;2023-06-22T06:05:10;1.52;;;1.23;;
6037;SDS011;3047;42.600;23.470;2023-06-22T06:07:38;1.27;;;1.17;;
6037;SDS011;3047;42.600;23.470;2023-06-22T06:10:05;1.60;;;1.50;;
6037;SDS011;3047;42.600;23.470;2023-06-22T06:12:33;1.60;;;1.60;;
6037;SDS011;3047;42.600;23.470;2023-06-22T06:15:01;1.80;;;1.70;;
6037;SDS011;3047;42.600;23.470;2023-06-22T06:17:28;1.30;;;1.30;;
6037;SDS011;3047;42.600;23.470;2023-06-22T06:19:54;1.30;;;1.30;;
6037;SDS011;3047;42.600;23.470;2023-06-22T06:22:21;1.63;;;1.60;;
6037;SDS011;3047;42.600;23.470;2023-06-22T06:24:48;1.73;;;1.48;;
6037;SDS011;3047;42.600;23.470;2023-06-22T06:27:15;0.90;;;0.90;;
6037;SDS011;3047;42.600;23.470;2023-06-22T06:29:44;1.10;;;1.10;;
6037;SDS011;3047;42.600;23.470;2023-06-22T06:32:14;1.33;;;1.00;;
6037;SDS011;3047;42.600;23.470;2023-06-22T06:34:41;1.52;;;1.52;;
6037;SDS011;3047;42.600;23.470;2023-06-22T06:37:08;1.08;;;1.08;;
6037;SDS011;3047;42.600;23.470;2023-06-22T06:39:35;1.08;;;1.08;;
6037;SDS011;3047;42.600;23.470;2023-06-22T06:42:01;1.25;;;1.10;;
6037;SDS011;3047;42.600;23.470;2023-06-22T06:44:28;1.05;;;1.05;;
6037;SDS011;3047;42.600;23.470;2023-06-22T06:46:55;0.88;;;0.88;;
6037;SDS011;3047;42.600;23.470;2023-06-22T06:49:23;2.83;;;1.67;;
6037;SDS011;3047;42.600;23.470;2023-06-22T06:51:50;0.80;;;0.80;;
6037;SDS011;3047;42.600;23.470;2023-06-22T06:54:17;0.80;;;0.80;;
6037;SDS011;3047;42.600;23.470;2023-06-22T06:56:45;0.98;;;0.98;;
6037;SDS011;3047;42.600;23.470;2023-06-22T06:59:13;1.25;;;1.25;;
6037;SDS011;3047;42.600;23.470;2023-06-22T07:01:40;1.27;;;1.23;;
6037;SDS011;3047;42.600;23.470;2023-06-22T07:04:06;1.38;;;1.00;;
6037;SDS011;3047;42.600;23.470;2023-06-22T07:06:34;1.40;;;1.30;;
6037;SDS011;3047;42.600;23.470;2023-06-22T07:09:02;1.30;;;1.30;;
6037;SDS011;3047;42.600;23.470;2023-06-22T07:11:30;1.17;;;1.17;;
6037;SDS011;3047;42.600;23.470;2023-06-22T07:13:56;0.85;;;0.85;;
6037;SDS011;3047;42.600;23.470;2023-06-22T07:16:23;1.25;;;1.23;;
6037;SDS011;3047;42.600;23.470;2023-06-22T07:18:51;1.27;;;1.17;;
6037;SDS011;3047;42.600;23.470;2023-06-22T07:21:18;1.08;;;1.08;;
6037;SDS011;3047;42.600;23.470;2023-06-22T07:23:46;0.98;;;0.98;;
6037;SDS011;3047;42.600;23.470;2023-06-22T07:26:12;0.90;;;0.90;;
6037;SDS011;3047;42.600;23.470;2023-06-22T07:28:41;1.20;;;1.20;;
6037;SDS011;3047;42.600;23.470;2023-06-22T07:31:07;1.08;;;1.08;;
6037;SDS011;3047;42.600;23.470;2023-06-22T07:33:34;1.33;;;1.33;;
6037;SDS011;3047;42.600;23.470;2023-06-22T07:36:01;1.00;;;1.00;;
6037;SDS011;3047;42.600;23.470;2023-06-22T07:38:32;1.30;;;1.30;;
6037;SDS011;3047;42.600;23.470;2023-06-22T07:41:00;1.13;;;1.13;;
6037;SDS011;3047;42.600;23.470;2023-06-22T07:43:29;1.15;;;1.05;;
6037;SDS011;3047;42.600;23.470;2023-06-22T07:45:58;1.83;;;1.83;;
6037;SDS011;3047;42.600;23.470;2023-06-22T07:48:24;1.10;;;1.10;;
6037;SDS011;3047;42.600;23.470;2023-06-22T07:50:51;1.00;;;1.00;;
6037;SDS011;3047;42.600;23.470;2023-06-22T07:53:18;1.58;;;1.48;;
6037;SDS011;3047;42.600;23.470;2023-06-22T07:55:45;1.30;;;1.30;;
6037;SDS011;3047;42.600;23.470;2023-06-22T07:58:13;1.80;;;1.70;;
6037;SDS011;3047;42.600;23.470;2023-06-22T08:00:40;1.45;;;1.35;;
6037;SDS011;3047;42.600;23.470;2023-06-22T08:03:07;2.40;;;2.30;;
6037;SDS011;3047;42.600;23.470;2023-06-22T08:05:34;1.58;;;1.45;;
6037;SDS011;3047;42.600;23.470;2023-06-22T08:08:00;1.88;;;1.75;;
6037;SDS011;3047;42.600;23.470;2023-06-22T08:10:27;1.20;;;1.20;;
6037;SDS011;3047;42.600;23.470;2023-06-22T08:12:54;2.38;;;1.23;;
6037;SDS011;3047;42.600;23.470;2023-06-22T08:15:22;1.95;;;1.55;;
6037;SDS011;3047;42.600;23.470;2023-06-22T08:17:48;1.30;;;1.20;;
6037;SDS011;3047;42.600;23.470;2023-06-22T08:20:17;2.13;;;2.03;;
6037;SDS011;3047;42.600;23.470;2023-06-22T08:22:44;1.98;;;1.88;;
6037;SDS011;3047;42.600;23.470;2023-06-22T08:25:10;1.98;;;1.80;;
6037;SDS011;3047;42.600;23.470;2023-06-22T08:27:38;2.08;;;1.98;;
6037;SDS011;3047;42.600;23.470;2023-06-22T08:30:05;1.52;;;1.42;;
6037;SDS011;3047;42.600;23.470;2023-06-22T08:32:35;1.90;;;1.80;;
6037;SDS011;3047;42.600;23.470;2023-06-22T08:35:01;1.70;;;1.60;;
6037;SDS011;3047;42.600;23.470;2023-06-22T08:37:28;1.52;;;1.52;;
6037;SDS011;3047;42.600;23.470;2023-06-22T08:39:56;2.17;;;2.00;;
6037;SDS011;3047;42.600;23.470;2023-06-22T08:42:23;1.40;;;1.35;;
6037;SDS011;3047;42.600;23.470;2023-06-22T08:44:50;1.80;;;1.70;;
6037;SDS011;3047;42.600;23.470;2023-06-22T08:47:17;3.92;;;1.55;;
6037;SDS011;3047;42.600;23.470;2023-06-22T08:49:46;1.98;;;1.88;;
6037;SDS011;3047;42.600;23.470;2023-06-22T08:52:12;2.88;;;1.65;;
6037;SDS011;3047;42.600;23.470;2023-06-22T08:54:39;2.25;;;1.77;;
6037;SDS011;3047;42.600;23.470;2023-06-22T08:57:06;1.80;;;1.70;;
6037;SDS011;3047;42.600;23.470;2023-06-22T08:59:33;2.58;;;2.38;;
6037;SDS011;3047;42.600;23.470;2023-06-22T09:01:59;1.73;;;1.63;;
6037;SDS011;3047;42.600;23.470;2023-06-22T09:04:26;2.00;;;1.90;;
6037;SDS011;3047;42.600;23.470;2023-06-22T09:06:54;1.45;;;1.35;;
6037;SDS011;3047;42.600;23.470;2023-06-22T09:09:21;3.92;;;1.80;;
6037;SDS011;3047;42.600;23.470;2023-06-22T09:11:48;2.25;;;2.15;;
6037;SDS011;3047;42.600;23.470;2023-06-22T09:14:14;2.40;;;1.98;;
6037;SDS011;3047;42.600;23.470;2023-06-22T09:16:41;2.42;;;2.22;;
6037;SDS011;3047;42.600;23.470;2023-06-22T09:19:08;3.30;;;1.88;;
6037;SDS011;3047;42.600;23.470;2023-06-22T09:21:35;2.33;;;2.15;;
6037;SDS011;3047;42.600;23.470;2023-06-22T09:24:04;2.50;;;2.30;;
6037;SDS011;3047;42.600;23.470;2023-06-22T09:26:31;3.15;;;1.95;;
6037;SDS011;3047;42.600;23.470;2023-06-22T09:28:58;1.98;;;1.88;;
6037;SDS011;3047;42.600;23.470;2023-06-22T09:31:25;2.97;;;2.58;;
6037;SDS011;3047;42.600;23.470;2023-06-22T09:33:52;1.75;;;1.65;;
6037;SDS011;3047;42.600;23.470;2023-06-22T09:36:19;2.67;;;2.47;;
6037;SDS011;3047;42.600;23.470;2023-06-22T09:38:46;2.40;;;2.22;;
6037;SDS011;3047;42.600;23.470;2023-06-22T09:41:15;3.00;;;2.80;;
6037;SDS011;3047;42.600;23.470;2023-06-22T09:43:42;2.60;;;2.40;;
6037;SDS011;3047;42.600;23.470;2023-06-22T09:46:09;1.80;;;1.67;;
6037;SDS011;3047;42.600;23.470;2023-06-22T09:48:36;2.20;;;2.03;;
6037;SDS011;3047;42.600;23.470;2023-06-22T09:51:03;2.28;;;2.08;;
6037;SDS011;3047;42.600;23.470;2023-06-22T09:53:29;2.28;;;2.17;;
6037;SDS011;3047;42.600;23.470;2023-06-22T09:55:56;4.15;;;2.05;;
6037;SDS011;3047;42.600;23.470;2023-06-22T09:58:24;3.00;;;2.35;;
6037;SDS011;3047;42.600;23.470;2023-06-22T10:00:51;3.00;;;2.70;;
6037;SDS011;3047;42.600;23.470;2023-06-22T10:03:19;2.88;;;2.67;;
6037;SDS011;3047;42.600;23.470;2023-06-22T10:05:46;2.00;;;1.90;;
6037;SDS011;3047;42.600;23.470;2023-06-22T10:08:12;2.10;;;1.90;;
6037;SDS011;3047;42.600;23.470;2023-06-22T10:10:39;2.78;;;2.58;;
6037;SDS011;3047;42.600;23.470;2023-06-22T10:13:07;2.35;;;2.25;;
6037;SDS011;3047;42.600;23.470;2023-06-22T10:15:37;2.35;;;2.17;;
6037;SDS011;3047;42.600;23.470;2023-06-22T10:18:05;2.28;;;2.08;;
6037;SDS011;3047;42.600;23.470;2023-06-22T10:20:31;2.50;;;2.30;;
6037;SDS011;3047;42.600;23.470;2023-06-22T10:22:58;1.95;;;1.85;;
6037;SDS011;3047;42.600;23.470;2023-06-22T10:25:25;5.22;;;2.70;;
6037;SDS011;3047;42.600;23.470;2023-06-22T10:27:52;3.22;;;1.95;;
6037;SDS011;3047;42.600;23.470;2023-06-22T10:30:19;2.63;;;2.45;;
6037;SDS011;3047;42.600;23.470;2023-06-22T10:32:47;2.10;;;1.98;;
6037;SDS011;3047;42.600;23.470;2023-06-22T10:35:14;3.05;;;2.85;;
6037;SDS011;3047;42.600;23.470;2023-06-22T10:37:41;2.47;;;2.28;;
6037;SDS011;3047;42.600;23.470;2023-06-22T10:40:09;2.60;;;2.40;;
6037;SDS011;3047;42.600;23.470;2023-06-22T10:42:37;2.80;;;2.60;;
6037;SDS011;3047;42.600;23.470;2023-06-22T10:45:04;2.75;;;2.47;;
6037;SDS011;3047;42.600;23.470;2023-06-22T10:47:31;1.98;;;1.88;;
6037;SDS011;3047;42.600;23.470;2023-06-22T10:50:00;3.08;;;2.70;;
6037;SDS011;3047;42.600;23.470;2023-06-22T10:52:27;3.72;;;2.88;;
6037;SDS011;3047;42.600;23.470;2023-06-22T10:54:53;2.85;;;2.22;;
6037;SDS011;3047;42.600;23.470;2023-06-22T10:57:21;2.50;;;2.30;;
6037;SDS011;3047;42.600;23.470;2023-06-22T10:59:47;2.45;;;2.25;;
6037;SDS011;3047;42.600;23.470;2023-06-22T11:02:14;2.95;;;2.75;;
6037;SDS011;3047;42.600;23.470;2023-06-22T11:04:41;2.90;;;2.70;;
6037;SDS011;3047;42.600;23.470;2023-06-22T11:07:09;2.72;;;2.47;;
6037;SDS011;3047;42.600;23.470;2023-06-22T11:09:36;2.25;;;2.15;;
6037;SDS011;3047;42.600;23.470;2023-06-22T11:12:05;3.42;;;2.50;;
6037;SDS011;3047;42.600;23.470;2023-06-22T11:14:32;2.67;;;2.47;;
6037;SDS011;3047;42.600;23.470;2023-06-22T11:16:59;3.97;;;2.85;;
6037;SDS011;3047;42.600;23.470;2023-06-22T11:19:26;4.93;;;3.45;;
6037;SDS011;3047;42.600;23.470;2023-06-22T11:21:52;5.38;;;2.20;;
6037;SDS011;3047;42.600;23.470;2023-06-22T11:24:21;4.68;;;2.45;;
6037;SDS011;3047;42.600;23.470;2023-06-22T11:26:48;2.47;;;2.38;;
6037;SDS011;3047;42.600;23.470;2023-06-22T11:29:14;3.15;;;2.63;;
6037;SDS011;3047;42.600;23.470;2023-06-22T11:31:41;2.42;;;2.22;;
6037;SDS011;3047;42.600;23.470;2023-06-22T11:34:08;2.25;;;2.13;;
6037;SDS011;3047;42.600;23.470;2023-06-22T11:36:36;3.00;;;2.80;;
6037;SDS011;3047;42.600;23.470;2023-06-22T11:39:03;2.40;;;1.85;;
6037;SDS011;3047;42.600;23.470;2023-06-22T11:41:31;2.40;;;2.30;;
6037;SDS011;3047;42.600;23.470;2023-06-22T11:43:58;2.97;;;2.40;;
6037;SDS011;3047;42.600;23.470;2023-06-22T11:46:24;3.22;;;2.83;;
6037;SDS011;3047;42.600;23.470;2023-06-22T11:48:51;4.80;;;3.00;;
6037;SDS011;3047;42.600;23.470;2023-06-22T11:51:18;2.78;;;2.58;;
6037;SDS011;3047;42.600;23.470;2023-06-22T11:53:45;2.63;;;2.50;;
6037;SDS011;3047;42.600;23.470;2023-06-22T11:56:11;4.68;;;2.35;;
6037;SDS011;3047;42.600;23.470;2023-06-22T11:58:39;3.90;;;2.83;;
6037;SDS011;3047;42.600;23.470;2023-06-22T12:01:06;3.00;;;2.78;;
6037;SDS011;3047;42.600;23.470;2023-06-22T12:03:33;8.13;;;2.38;;
6037;SDS011;3047;42.600;23.470;2023-06-22T12:05:59;4.05;;;2.70;;
6037;SDS011;3047;42.600;23.470;2023-06-22T12:08:26;2.38;;;2.15;;
6037;SDS011;3047;42.600;23.470;2023-06-22T12:10:53;7.65;;;2.97;;
6037;SDS011;3047;42.600;23.470;2023-06-22T12:13:20;3.35;;;2.50;;
6037;SDS011;3047;42.600;23.470;2023-06-22T12:15:48;3.30;;;2.90;;
6037;SDS011;3047;42.600;23.470;2023-06-22T12:18:16;3.50;;;3.30;;
6037;SDS011;3047;42.600;23.470;2023-06-22T12:20:45;3.17;;;2.83;;
6037;SDS011;3047;42.600;23.470;2023-06-22T12:23:12;2.40;;;2.20;;
6037;SDS011;3047;42.600;23.470;2023-06-22T12:25:39;2.33;;;2.13;;
6037;SDS011;3047;42.600;23.470;2023-06-22T12:28:05;1.80;;;1.70;;
6037;SDS011;3047;42.600;23.470;2023-06-22T12:30:32;1.70;;;1.70;;
6037;SDS011;3047;42.600;23.470;2023-06-22T12:33:00;3.53;;;2.30;;
6037;SDS011;3047;42.600;23.470;2023-06-22T12:35:27;1.92;;;1.83;;
6037;SDS011;3047;42.600;23.470;2023-06-22T12:37:54;1.30;;;1.30;;
6037;SDS011;3047;42.600;23.470;2023-06-22T12:40:20;1.67;;;1.58;;
6037;SDS011;3047;42.600;23.470;2023-06-22T12:42:47;1.52;;;1.52;;
6037;SDS011;3047;42.600;23.470;2023-06-22T12:45:14;1.30;;;1.20;;
6037;SDS011;3047;42.600;23.470;2023-06-22T12:47:41;1.80;;;1.70;;
6037;SDS011;3047;42.600;23.470;2023-06-22T12:50:09;1.33;;;1.33;;
6037;SDS011;3047;42.600;23.470;2023-06-22T12:52:36;1.40;;;1.40;;
6037;SDS011;3047;42.600;23.470;2023-06-22T12:55:06;1.30;;;1.30;;
6037;SDS011;3047;42.600;23.470;2023-06-22T12:57:33;1.30;;;1.30;;
6037;SDS011;3047;42.600;23.470;2023-06-22T13:00:00;1.50;;;1.42;;
6037;SDS011;3047;42.600;23.470;2023-06-22T13:02:27;1.80;;;1.70;;
6037;SDS011;3047;42.600;23.470;2023-06-22T13:04:54;1.40;;;1.33;;
6037;SDS011;3047;42.600;23.470;2023-06-22T13:07:22;1.48;;;1.38;;
6037;SDS011;3047;42.600;23.470;2023-06-22T13:09:48;1.38;;;1.38;;
6037;SDS011;3047;42.600;23.470;2023-06-22T13:12:16;1.20;;;1.20;;
6037;SDS011;3047;42.600;23.470;2023-06-22T13:14:43;1.83;;;1.83;;
6037;SDS011;3047;42.600;23.470;2023-06-22T13:17:11;1.48;;;1.48;;
6037;SDS011;3047;42.600;23.470;2023-06-22T13:19:39;2.15;;;1.42;;
6037;SDS011;3047;42.600;23.470;2023-06-22T13:22:09;1.23;;;1.23;;
6037;SDS011;3047;42.600;23.470;2023-06-22T13:24:54;2.25;;;2.00;;
6037;SDS011;3047;42.600;23.470;2023-06-22T13:27:21;1.35;;;1.33;;
6037;SDS011;3047;42.600;23.470;2023-06-22T13:29:47;1.83;;;1.83;;
6037;SDS011;3047;42.600;23.470;2023-06-22T13:32:14;2.33;;;2.22;;
6037;SDS011;3047;42.600;23.470;2023-06-22T13:34:41;2.00;;;1.92;;
6037;SDS011;3047;42.600;23.470;2023-06-22T13:37:08;1.85;;;1.83;;
6037;SDS011;3047;42.600;23.470;2023-06-22T13:39:36;2.00;;;1.90;;
6037;SDS011;3047;42.600;23.470;2023-06-22T13:42:04;2.65;;;1.88;;
6037;SDS011;3047;42.600;23.470;2023-06-22T13:44:31;1.33;;;1.33;;
6037;SDS011;3047;42.600;23.470;2023-06-22T13:46:57;2.30;;;2.10;;
6037;SDS011;3047;42.600;23.470;2023-06-22T13:49:24;1.45;;;1.45;;
6037;SDS011;3047;42.600;23.470;2023-06-22T13:51:51;1.95;;;1.85;;
6037;SDS011;3047;42.600;23.470;2023-06-22T13:54:17;2.05;;;1.95;;
6037;SDS011;3047;42.600;23.470;2023-06-22T13:56:46;1.60;;;1.60;;
6037;SDS011;3047;42.600;23.470;2023-06-22T13:59:12;2.47;;;1.92;;
6037;SDS011;3047;42.600;23.470;2023-06-22T14:01:39;2.00;;;2.00;;
6037;SDS011;3047;42.600;23.470;2023-06-22T14:04:06;1.65;;;1.63;;
6037;SDS011;3047;42.600;23.470;2023-06-22T14:06:33;1.98;;;1.98;;
6037;SDS011;3047;42.600;23.470;2023-06-22T14:09:00;1.95;;;1.85;;
6037;SDS011;3047;42.600;23.470;2023-06-22T14:11:27;1.92;;;1.85;;
6037;SDS011;3047;42.600;23.470;2023-06-22T14:13:55;2.83;;;2.15;;
6037;SDS011;3047;42.600;23.470;2023-06-22T14:16:21;1.15;;;1.15;;
6037;SDS011;3047;42.600;23.470;2023-06-22T14:18:48;2.13;;;2.03;;
6037;SDS011;3047;42.600;23.470;2023-06-22T14:21:15;2.00;;;2.00;;
6037;SDS011;3047;42.600;23.470;2023-06-22T14:23:41;1.63;;;1.63;;
6037;SDS011;3047;42.600;23.470;2023-06-22T14:26:12;2.10;;;2.00;;
6037;SDS011;3047;42.600;23.470;2023-06-22T14:28:39;1.48;;;1.48;;
6037;SDS011;3047;42.600;23.470;2023-06-22T14:31:07;2.20;;;2.05;;
6037;SDS011;3047;42.600;23.470;2023-06-22T14:33:33;2.00;;;1.95;;
6037;SDS011;3047;42.600;23.470;2023-06-22T14:36:00;1.90;;;1.90;;
6037;SDS011;3047;42.600;23.470;2023-06-22T14:38:26;1.95;;;1.85;;
6037;SDS011;3047;42.600;23.470;2023-06-22T14:40:53;1.90;;;1.80;;
6037;SDS011;3047;42.600;23.470;2023-06-22T14:43:20;2.13;;;2.00;;
6037;SDS011;3047;42.600;23.470;2023-06-22T14:45:47;1.45;;;1.45;;
6037;SDS011;3047;42.600;23.470;2023-06-22T14:48:15;1.85;;;1.75;;
6037;SDS011;3047;42.600;23.470;2023-06-22T14:50:41;1.85;;;1.85;;
6037;SDS011;3047;42.600;23.470;2023-06-22T14:53:08;2.00;;;1.90;;
6037;SDS011;3047;42.600;23.470;2023-06-22T14:55:35;2.45;;;2.35;;
6037;SDS011;3047;42.600;23.470;2023-06-22T14:58:01;2.40;;;2.30;;
6037;SDS011;3047;42.600;23.470;2023-06-22T15:00:28;3.63;;;3.42;;
6037;SDS011;3047;42.600;23.470;2023-06-22T15:02:55;2.30;;;2.20;;